createdAt,value
2023-10-16T05:03:10.792Z,1.37
2023-10-16T05:06:16.118Z,1.88
2023-10-16T05:09:36.605Z,1.77
2023-10-16T05:12:57.992Z,1.70
2023-10-16T05:16:30.349Z,2.30
2023-10-16T05:19:48.346Z,2.00
2023-10-16T05:26:52.292Z,2.42
2023-10-16T05:34:55.994Z,1.67
2023-10-16T05:38:18.372Z,2.20
2023-10-16T05:51:03.189Z,1.85
2023-10-16T05:54:28.596Z,1.88
2023-10-16T06:02:50.949Z,1.38
2023-10-16T06:06:22.380Z,2.03
2023-10-16T06:09:45.430Z,1.80
2023-10-16T06:42:06.427Z,1.90
2023-10-16T06:45:20.659Z,1.65
2023-10-16T06:48:24.441Z,2.15
2023-10-16T06:51:49.886Z,2.05
2023-10-16T06:54:53.470Z,1.90
2023-10-16T06:58:01.442Z,2.03
2023-10-16T07:01:06.144Z,1.63
2023-10-16T07:04:14.009Z,1.80
2023-10-16T07:07:24.161Z,1.70
2023-10-16T07:10:29.086Z,1.90
2023-10-16T07:13:33.681Z,1.37
2023-10-16T07:16:36.947Z,1.85
2023-10-16T07:19:47.756Z,1.95
2023-10-16T07:22:57.938Z,2.00
2023-10-16T07:26:08.140Z,2.20
2023-10-16T07:29:24.633Z,1.60
2023-10-16T07:32:38.108Z,1.65
2023-10-16T07:35:52.601Z,1.80
2023-10-16T07:38:58.426Z,1.42
2023-10-16T07:42:02.988Z,1.33
2023-10-16T07:45:16.342Z,2.00
2023-10-16T07:48:58.327Z,1.52
2023-10-16T07:52:52.110Z,1.48
2023-10-16T08:01:15.552Z,1.65
2023-10-16T08:04:37.329Z,1.53
2023-10-16T08:08:51.472Z,1.88
2023-10-16T08:13:14.046Z,2.05
2023-10-16T08:18:03.116Z,1.88
2023-10-16T08:24:45.926Z,1.43
2023-10-16T08:27:51.182Z,1.67
2023-10-16T08:30:55.624Z,1.50
2023-10-16T08:34:01.018Z,1.58
2023-10-16T08:37:05.756Z,1.60
2023-10-16T08:40:22.925Z,1.70
2023-10-16T08:43:41.403Z,1.48
2023-10-16T08:46:57.428Z,1.92
2023-10-16T08:50:18.708Z,1.50
2023-10-16T08:53:35.916Z,1.48
2023-10-16T08:56:41.288Z,1.60
2023-10-16T08:59:47.465Z,1.58
2023-10-16T09:02:56.028Z,1.73
2023-10-16T09:06:02.912Z,1.70
2023-10-16T09:09:21.977Z,1.63
2023-10-16T09:12:40.797Z,1.60
2023-10-16T09:16:06.016Z,1.40
2023-10-16T09:20:15.311Z,1.77
2023-10-16T09:24:00.091Z,1.40
2023-10-16T09:37:16.852Z,1.70
2023-10-16T09:54:09.194Z,1.50
2023-10-16T09:58:07.658Z,1.20
2023-10-16T10:06:13.656Z,1.92
2023-10-16T10:09:23.574Z,1.50
2023-10-16T10:12:44.135Z,1.30
2023-10-16T10:15:53.548Z,1.30
2023-10-16T10:19:02.644Z,1.75
2023-10-16T10:22:16.695Z,1.15
2023-10-16T10:25:41.757Z,1.70
2023-10-16T10:29:09.495Z,1.20
2023-10-16T10:32:21.209Z,1.27
2023-10-16T10:35:39.871Z,1.48
2023-10-16T10:38:43.249Z,1.30
2023-10-16T10:41:58.815Z,1.08
2023-10-16T10:46:02.964Z,1.20
2023-10-16T10:49:17.019Z,1.45
2023-10-16T10:52:49.874Z,1.60
2023-10-16T11:00:47.150Z,1.35
2023-10-16T11:04:34.794Z,1.30
2023-10-16T11:07:48.473Z,1.20
2023-10-16T11:11:00.996Z,1.02
2023-10-16T11:19:57.118Z,0.90
2023-10-16T11:28:01.825Z,0.80
2023-10-16T11:31:20.132Z,0.70
2023-10-16T11:34:43.957Z,0.55
2023-10-16T11:38:23.749Z,0.73
2023-10-16T11:41:30.179Z,0.80
2023-10-16T11:45:58.252Z,0.70
2023-10-16T11:49:35.786Z,1.05
2023-10-16T11:52:42.397Z,0.60
2023-10-16T11:55:49.497Z,0.80
2023-10-16T11:58:57.083Z,0.83
2023-10-16T12:02:12.273Z,0.95
2023-10-16T12:05:50.226Z,1.00
2023-10-16T12:09:14.456Z,0.75
2023-10-16T12:12:22.192Z,0.80
2023-10-16T12:15:35.679Z,1.20
2023-10-16T12:18:41.990Z,1.00
2023-10-16T12:21:49.248Z,0.60
2023-10-16T12:24:57.641Z,0.80
2023-10-16T12:28:11.810Z,1.00
2023-10-16T12:31:22.980Z,1.00
2023-10-16T12:34:49.838Z,0.80
2023-10-16T12:38:06.241Z,0.80
2023-10-16T12:42:27.992Z,0.60
2023-10-16T12:45:33.594Z,0.88
2023-10-16T12:49:25.563Z,0.73
2023-10-16T12:52:53.050Z,0.75
2023-10-16T12:59:57.660Z,0.77
2023-10-16T13:03:27.954Z,0.88
2023-10-16T13:06:32.235Z,0.90
2023-10-16T13:10:19.247Z,1.20
2023-10-16T13:13:25.400Z,0.90
2023-10-16T13:16:31.859Z,0.80
2023-10-16T13:19:35.341Z,1.00
2023-10-16T13:26:05.346Z,1.00
2023-10-16T13:29:34.764Z,0.73
2023-10-16T13:32:46.217Z,0.70
2023-10-16T13:35:49.944Z,0.70
2023-10-16T13:39:00.291Z,1.00
2023-10-16T13:42:09.299Z,0.80
2023-10-16T13:45:17.700Z,0.88
2023-10-16T13:48:35.128Z,0.88
2023-10-16T13:51:38.706Z,0.80
2023-10-16T13:54:43.038Z,0.63
2023-10-16T13:57:50.067Z,0.60
2023-10-16T14:00:53.259Z,0.90
2023-10-16T14:04:00.024Z,0.85
2023-10-16T14:07:09.784Z,0.98
2023-10-16T14:10:15.140Z,0.70
2023-10-16T14:13:21.352Z,1.05
2023-10-16T14:16:25.503Z,1.25
2023-10-16T14:19:30.311Z,0.90
2023-10-16T14:22:49.067Z,0.90
2023-10-16T14:25:59.139Z,0.70
2023-10-16T14:29:05.274Z,0.80
2023-10-16T14:32:10.463Z,0.95
2023-10-16T14:35:15.602Z,0.80
2023-10-16T14:38:20.924Z,0.75
2023-10-16T14:41:26.579Z,0.97
2023-10-16T14:44:32.400Z,0.68
2023-10-16T14:47:37.702Z,0.82
2023-10-16T14:50:41.415Z,0.70
2023-10-16T14:53:45.820Z,0.75
2023-10-16T14:56:50.425Z,0.50
2023-10-16T14:59:55.006Z,0.70
2023-10-16T15:03:03.337Z,0.88
